createdAt,value
2022-08-27T00:01:18.439Z,100.00
2022-08-27T00:03:45.803Z,100.00
2022-08-27T00:06:14.584Z,100.00
2022-08-27T00:08:42.635Z,100.00
2022-08-27T00:11:10.110Z,100.00
2022-08-27T00:13:37.023Z,100.00
2022-08-27T00:16:06.754Z,100.00
2022-08-27T00:18:35.384Z,100.00
2022-08-27T00:21:02.841Z,100.00
2022-08-27T00:23:29.962Z,100.00
2022-08-27T00:25:56.509Z,100.00
2022-08-27T00:28:25.994Z,100.00
2022-08-27T00:30:52.603Z,100.00
2022-08-27T00:33:19.373Z,100.00
2022-08-27T00:35:45.879Z,100.00
2022-08-27T00:38:13.108Z,100.00
2022-08-27T00:40:41.028Z,100.00
2022-08-27T00:43:07.624Z,100.00
2022-08-27T00:45:39.820Z,100.00
2022-08-27T00:48:08.971Z,100.00
2022-08-27T00:50:43.603Z,100.00
2022-08-27T00:53:19.488Z,100.00
2022-08-27T00:55:53.004Z,100.00
2022-08-27T00:58:25.189Z,100.00
2022-08-27T01:00:51.904Z,100.00
2022-08-27T01:03:18.730Z,100.00
2022-08-27T01:05:47.737Z,100.00
2022-08-27T01:08:19.177Z,100.00
2022-08-27T01:10:46.392Z,100.00
2022-08-27T01:13:17.070Z,100.00
2022-08-27T01:15:44.123Z,100.00
2022-08-27T01:18:13.365Z,100.00
2022-08-27T01:20:56.449Z,100.00
2022-08-27T01:23:31.693Z,100.00
2022-08-27T01:26:01.811Z,100.00
2022-08-27T01:28:37.485Z,100.00
2022-08-27T01:31:07.180Z,100.00
2022-08-27T01:33:33.704Z,100.00
2022-08-27T01:36:00.361Z,100.00
2022-08-27T01:38:30.736Z,100.00
2022-08-27T01:40:59.347Z,100.00
2022-08-27T01:43:27.520Z,100.00
2022-08-27T01:45:54.027Z,100.00
2022-08-27T01:48:22.018Z,100.00
2022-08-27T01:50:48.831Z,100.00
2022-08-27T01:53:19.212Z,100.00
2022-08-27T01:55:48.341Z,100.00
2022-08-27T01:58:16.472Z,100.00
2022-08-27T02:00:46.726Z,100.00
2022-08-27T02:03:13.901Z,100.00
2022-08-27T02:05:45.043Z,100.00
2022-08-27T02:08:15.598Z,100.00
2022-08-27T02:10:43.007Z,100.00
2022-08-27T02:13:09.557Z,100.00
2022-08-27T02:15:37.284Z,100.00
2022-08-27T02:18:05.889Z,100.00
2022-08-27T02:20:32.469Z,100.00
2022-08-27T02:22:59.395Z,100.00
2022-08-27T02:25:28.831Z,100.00
2022-08-27T02:27:57.378Z,100.00
2022-08-27T02:30:24.496Z,100.00
2022-08-27T02:32:52.984Z,100.00
2022-08-27T02:35:22.852Z,100.00
2022-08-27T02:37:50.050Z,100.00
2022-08-27T02:40:18.972Z,100.00
2022-08-27T02:42:45.738Z,100.00
2022-08-27T02:45:13.783Z,100.00
2022-08-27T02:47:40.831Z,100.00
2022-08-27T02:50:08.833Z,100.00
2022-08-27T02:52:35.508Z,100.00
2022-08-27T02:55:02.008Z,100.00
2022-08-27T02:57:28.516Z,100.00
2022-08-27T02:59:54.977Z,100.00
2022-08-27T03:02:21.577Z,100.00
2022-08-27T03:04:49.545Z,100.00
2022-08-27T03:07:18.892Z,100.00
2022-08-27T03:09:45.713Z,100.00
2022-08-27T03:12:12.827Z,100.00
2022-08-27T03:14:39.584Z,100.00
2022-08-27T03:17:24.567Z,100.00
2022-08-27T03:19:51.024Z,100.00
2022-08-27T03:22:17.498Z,100.00
2022-08-27T03:24:43.940Z,100.00
2022-08-27T03:27:10.401Z,100.00
2022-08-27T03:29:36.879Z,100.00
2022-08-27T03:32:06.847Z,100.00
2022-08-27T03:34:33.884Z,100.00
2022-08-27T03:37:01.380Z,100.00
2022-08-27T03:39:27.842Z,100.00
2022-08-27T03:41:55.765Z,100.00
2022-08-27T03:44:24.093Z,100.00
2022-08-27T03:46:51.632Z,100.00
2022-08-27T03:49:20.570Z,100.00
2022-08-27T03:51:48.497Z,100.00
2022-08-27T03:54:15.026Z,100.00
2022-08-27T03:56:41.675Z,100.00
2022-08-27T03:59:08.853Z,100.00
2022-08-27T04:01:35.857Z,100.00
2022-08-27T04:04:02.919Z,100.00
2022-08-27T04:06:29.356Z,100.00
2022-08-27T04:08:56.289Z,100.00
2022-08-27T04:11:23.354Z,100.00
2022-08-27T04:13:49.802Z,100.00
2022-08-27T04:16:16.398Z,100.00
2022-08-27T04:18:43.008Z,100.00
2022-08-27T04:21:11.416Z,100.00
2022-08-27T04:23:39.134Z,100.00
2022-08-27T04:26:07.781Z,100.00
2022-08-27T04:28:38.376Z,100.00
2022-08-27T04:31:06.194Z,100.00
2022-08-27T04:33:39.385Z,100.00
2022-08-27T04:36:08.661Z,100.00
2022-08-27T04:38:35.127Z,100.00
2022-08-27T04:41:27.445Z,100.00
2022-08-27T04:43:58.766Z,100.00
2022-08-27T04:46:29.051Z,100.00
2022-08-27T04:48:58.024Z,100.00
2022-08-27T04:51:25.510Z,100.00
2022-08-27T04:53:52.765Z,100.00
2022-08-27T04:56:22.321Z,100.00
2022-08-27T04:58:50.372Z,100.00
2022-08-27T05:01:19.191Z,100.00
2022-08-27T05:03:45.967Z,100.00
2022-08-27T05:06:12.635Z,100.00
2022-08-27T05:08:40.052Z,100.00
2022-08-27T05:11:08.820Z,100.00
2022-08-27T05:13:35.477Z,100.00
2022-08-27T05:16:08.175Z,100.00
2022-08-27T05:18:42.274Z,100.00
2022-08-27T05:21:31.749Z,100.00
2022-08-27T05:24:00.171Z,100.00
2022-08-27T05:26:28.051Z,100.00
2022-08-27T05:28:55.149Z,100.00
2022-08-27T05:31:22.606Z,100.00
2022-08-27T05:33:49.682Z,100.00
2022-08-27T05:36:28.393Z,100.00
2022-08-27T05:38:56.602Z,100.00
2022-08-27T05:41:33.930Z,100.00
2022-08-27T05:44:23.976Z,100.00
2022-08-27T05:46:51.126Z,100.00
2022-08-27T05:49:18.418Z,100.00
2022-08-27T05:51:44.948Z,100.00
2022-08-27T05:54:16.674Z,100.00
2022-08-27T05:56:43.347Z,100.00
2022-08-27T05:59:28.650Z,100.00
2022-08-27T06:01:56.372Z,100.00
2022-08-27T06:04:24.859Z,100.00
2022-08-27T06:06:52.649Z,100.00
2022-08-27T06:09:22.674Z,100.00
2022-08-27T06:11:49.574Z,100.00
2022-08-27T06:14:16.282Z,100.00
2022-08-27T06:16:42.765Z,100.00
2022-08-27T06:19:12.032Z,100.00
2022-08-27T06:21:39.340Z,100.00
2022-08-27T06:24:06.116Z,100.00
2022-08-27T06:26:32.616Z,100.00
2022-08-27T06:29:04.371Z,100.00
2022-08-27T06:31:31.063Z,100.00
2022-08-27T06:34:07.337Z,100.00
2022-08-27T06:36:38.879Z,100.00
2022-08-27T06:39:06.679Z,100.00
2022-08-27T06:41:34.377Z,100.00
2022-08-27T06:44:01.315Z,100.00
2022-08-27T06:46:29.342Z,100.00
2022-08-27T06:48:58.844Z,100.00
2022-08-27T06:51:27.708Z,100.00
2022-08-27T06:53:56.720Z,100.00
2022-08-27T06:56:23.711Z,100.00
2022-08-27T06:58:58.571Z,98.63
2022-08-27T07:01:31.556Z,99.56
2022-08-27T07:04:00.096Z,100.00
2022-08-27T07:06:29.350Z,100.00
2022-08-27T07:08:57.059Z,100.00
2022-08-27T07:11:24.385Z,100.00
2022-08-27T07:13:51.401Z,100.00
2022-08-27T07:16:23.292Z,100.00
2022-08-27T07:18:52.220Z,100.00
2022-08-27T07:21:22.520Z,100.00
2022-08-27T07:23:51.601Z,100.00
2022-08-27T07:26:19.577Z,100.00
2022-08-27T07:28:47.615Z,100.00
2022-08-27T07:31:18.102Z,100.00
2022-08-27T07:33:50.638Z,100.00
2022-08-27T07:36:21.452Z,100.00
2022-08-27T07:38:57.097Z,100.00
2022-08-27T07:41:31.116Z,100.00
2022-08-27T07:44:17.861Z,100.00
2022-08-27T07:46:47.860Z,100.00
2022-08-27T07:49:15.212Z,100.00
2022-08-27T07:51:41.682Z,100.00
2022-08-27T07:54:08.968Z,100.00
2022-08-27T07:56:35.453Z,100.00
2022-08-27T07:59:02.004Z,100.00
2022-08-27T08:01:30.047Z,100.00
2022-08-27T08:03:56.726Z,100.00
2022-08-27T08:06:23.274Z,100.00
2022-08-27T08:08:49.875Z,100.00
2022-08-27T08:11:18.461Z,100.00
2022-08-27T08:13:46.183Z,100.00
2022-08-27T08:16:13.541Z,100.00
2022-08-27T08:18:40.629Z,100.00
2022-08-27T08:21:11.889Z,100.00
2022-08-27T08:23:39.467Z,100.00
2022-08-27T08:26:07.034Z,100.00
2022-08-27T08:28:33.943Z,100.00
2022-08-27T08:31:00.955Z,100.00
2022-08-27T08:33:27.965Z,100.00
2022-08-27T08:35:54.604Z,100.00
2022-08-27T08:38:21.297Z,100.00
2022-08-27T08:40:53.165Z,100.00
2022-08-27T08:43:35.657Z,100.00
2022-08-27T08:46:11.035Z,100.00
2022-08-27T08:48:42.744Z,100.00
2022-08-27T08:51:41.513Z,100.00
2022-08-27T08:54:19.951Z,100.00
2022-08-27T08:57:01.785Z,100.00
2022-08-27T08:59:33.629Z,100.00
2022-08-27T09:02:00.219Z,100.00
2022-08-27T09:04:28.116Z,100.00
2022-08-27T09:07:01.291Z,100.00
2022-08-27T09:09:47.580Z,100.00
2022-08-27T09:12:19.234Z,100.00
2022-08-27T09:14:50.948Z,100.00
2022-08-27T09:17:17.441Z,100.00
2022-08-27T09:19:44.032Z,100.00
2022-08-27T09:22:41.804Z,100.00
2022-08-27T09:25:25.424Z,100.00
2022-08-27T09:27:59.531Z,100.00
2022-08-27T09:30:30.939Z,100.00
2022-08-27T09:33:04.154Z,100.00
2022-08-27T09:35:42.232Z,100.00
2022-08-27T09:38:09.564Z,100.00
2022-08-27T09:40:47.005Z,100.00
2022-08-27T09:43:16.845Z,100.00
2022-08-27T09:45:49.528Z,100.00
2022-08-27T09:48:28.968Z,100.00
2022-08-27T09:51:01.737Z,100.00
2022-08-27T09:53:45.742Z,100.00
2022-08-27T09:56:34.015Z,100.00
2022-08-27T09:59:08.148Z,100.00
2022-08-27T10:01:49.220Z,100.00
2022-08-27T10:04:21.627Z,100.00
2022-08-27T10:06:50.140Z,100.00
2022-08-27T10:09:47.721Z,100.00
2022-08-27T10:13:02.490Z,100.00
2022-08-27T10:15:47.667Z,100.00
2022-08-27T10:18:41.215Z,100.00
2022-08-27T10:21:29.605Z,100.00
2022-08-27T10:24:10.945Z,100.00
2022-08-27T10:26:46.537Z,100.00
2022-08-27T10:29:19.793Z,100.00
2022-08-27T10:32:10.993Z,100.00
2022-08-27T10:34:57.835Z,100.00
2022-08-27T10:37:40.527Z,100.00
2022-08-27T10:40:17.971Z,100.00
2022-08-27T10:43:19.552Z,100.00
2022-08-27T10:46:14.478Z,100.00
2022-08-27T10:48:51.213Z,100.00
2022-08-27T10:51:31.193Z,100.00
2022-08-27T10:54:26.144Z,100.00
2022-08-27T10:57:35.173Z,100.00
2022-08-27T11:00:17.472Z,100.00
2022-08-27T11:03:22.329Z,100.00
2022-08-27T11:05:51.020Z,100.00
2022-08-27T11:08:37.471Z,100.00
2022-08-27T11:14:09.495Z,100.00
2022-08-27T11:16:45.620Z,100.00
2022-08-27T11:19:44.937Z,100.00
2022-08-27T11:22:26.103Z,100.00
2022-08-27T11:25:06.099Z,100.00
2022-08-27T11:27:34.572Z,100.00
2022-08-27T11:30:09.707Z,100.00
2022-08-27T11:32:54.785Z,100.00
2022-08-27T11:35:54.228Z,100.00
2022-08-27T11:38:53.577Z,100.00
2022-08-27T11:41:29.309Z,100.00
2022-08-27T11:44:03.948Z,100.00
2022-08-27T11:46:43.856Z,100.00
2022-08-27T11:49:10.631Z,100.00
2022-08-27T11:51:40.637Z,100.00
2022-08-27T11:54:23.016Z,100.00
2022-08-27T11:56:49.828Z,100.00
2022-08-27T11:59:26.974Z,100.00
2022-08-27T12:01:56.150Z,100.00
2022-08-27T12:04:32.513Z,100.00
2022-08-27T12:07:14.298Z,100.00
2022-08-27T12:09:54.660Z,100.00
2022-08-27T12:12:36.245Z,100.00
2022-08-27T12:15:13.201Z,100.00
2022-08-27T12:17:42.672Z,100.00
2022-08-27T12:20:48.747Z,100.00
2022-08-27T12:23:39.997Z,100.00
2022-08-27T12:26:16.945Z,100.00
2022-08-27T12:28:43.536Z,100.00
2022-08-27T12:31:10.215Z,100.00
2022-08-27T12:33:43.152Z,100.00
2022-08-27T12:36:27.947Z,100.00
2022-08-27T12:38:58.302Z,100.00
2022-08-27T12:41:44.203Z,100.00
2022-08-27T12:44:23.163Z,100.00
2022-08-27T12:46:54.592Z,100.00
2022-08-27T12:49:39.023Z,100.00
2022-08-27T12:52:49.014Z,100.00
2022-08-27T12:55:54.141Z,100.00
2022-08-27T12:58:34.068Z,100.00
2022-08-27T13:01:00.644Z,100.00
2022-08-27T13:04:01.074Z,100.00
2022-08-27T13:06:34.449Z,100.00
2022-08-27T13:09:07.111Z,100.00
2022-08-27T13:11:43.995Z,99.90
2022-08-27T13:14:17.564Z,99.73
2022-08-27T13:17:08.831Z,99.29
2022-08-27T13:19:44.926Z,99.78
2022-08-27T13:22:12.392Z,99.47
2022-08-27T13:24:49.048Z,100.00
2022-08-27T13:27:16.105Z,100.00
2022-08-27T13:29:43.500Z,100.00
2022-08-27T13:32:14.094Z,100.00
2022-08-27T13:34:41.479Z,99.01
2022-08-27T13:37:32.014Z,98.10
2022-08-27T13:39:58.495Z,99.55
2022-08-27T13:42:26.376Z,98.89
2022-08-27T13:45:00.147Z,96.80
2022-08-27T13:47:27.889Z,96.64
2022-08-27T13:50:07.618Z,94.14
2022-08-27T13:52:36.564Z,95.59
2022-08-27T13:55:07.891Z,96.26
2022-08-27T13:58:00.830Z,92.83
2022-08-27T14:00:32.198Z,94.58
2022-08-27T14:03:01.426Z,94.87
2022-08-27T14:05:31.910Z,95.46
2022-08-27T14:08:01.301Z,97.03
2022-08-27T14:10:37.562Z,97.96
2022-08-27T14:13:19.897Z,96.96
2022-08-27T14:15:55.136Z,95.79
2022-08-27T14:18:42.253Z,96.57
2022-08-27T14:21:12.843Z,98.04
2022-08-27T14:23:39.558Z,99.00
2022-08-27T14:26:07.756Z,99.44
2022-08-27T14:28:34.196Z,100.00
2022-08-27T14:31:00.714Z,100.00
2022-08-27T14:33:27.913Z,100.00
2022-08-27T14:35:54.575Z,100.00
2022-08-27T14:38:23.382Z,100.00
2022-08-27T14:40:53.134Z,99.47
2022-08-27T14:43:19.891Z,99.66
2022-08-27T14:45:48.306Z,100.00
2022-08-27T14:48:35.540Z,100.00
2022-08-27T14:51:10.547Z,99.05
2022-08-27T14:53:37.035Z,98.66
2022-08-27T14:56:03.966Z,98.69
2022-08-27T14:58:30.451Z,99.98
2022-08-27T15:00:57.745Z,100.00
2022-08-27T15:03:25.508Z,100.00
2022-08-27T15:05:56.197Z,99.80
2022-08-27T15:08:29.034Z,100.00
2022-08-27T15:10:58.789Z,100.00
2022-08-27T15:13:25.276Z,100.00
2022-08-27T15:15:52.440Z,100.00
2022-08-27T15:18:19.506Z,100.00
2022-08-27T15:20:46.042Z,100.00
2022-08-27T15:23:14.591Z,100.00
2022-08-27T15:25:42.025Z,100.00
2022-08-27T15:28:08.525Z,100.00
2022-08-27T15:30:36.901Z,100.00
2022-08-27T15:33:06.029Z,100.00
2022-08-27T15:35:33.435Z,100.00
2022-08-27T15:38:00.081Z,100.00
2022-08-27T15:40:31.828Z,100.00
2022-08-27T15:43:02.305Z,100.00
2022-08-27T15:45:29.312Z,100.00
2022-08-27T15:47:56.401Z,100.00
2022-08-27T15:50:23.245Z,100.00
2022-08-27T15:52:54.829Z,100.00
2022-08-27T15:55:24.830Z,100.00
2022-08-27T15:57:51.662Z,98.86
2022-08-27T16:00:18.674Z,97.53
2022-08-27T16:02:46.258Z,98.58
2022-08-27T16:05:15.367Z,99.39
2022-08-27T16:07:42.695Z,99.45
2022-08-27T16:10:09.979Z,99.69
2022-08-27T16:12:36.541Z,100.00
2022-08-27T16:15:05.716Z,100.00
2022-08-27T16:17:32.785Z,100.00
2022-08-27T16:19:59.256Z,100.00
2022-08-27T16:22:25.958Z,100.00
2022-08-27T16:24:52.414Z,100.00
2022-08-27T16:27:18.871Z,100.00
2022-08-27T16:29:45.333Z,100.00
2022-08-27T16:32:17.246Z,100.00
2022-08-27T16:34:46.205Z,100.00
2022-08-27T16:37:12.689Z,100.00
2022-08-27T16:39:41.386Z,100.00
2022-08-27T16:42:10.154Z,100.00
2022-08-27T16:44:38.493Z,100.00
2022-08-27T16:47:06.360Z,100.00
2022-08-27T16:49:51.438Z,100.00
2022-08-27T16:52:19.275Z,100.00
2022-08-27T16:54:45.902Z,100.00
2022-08-27T16:57:12.504Z,100.00
2022-08-27T16:59:39.009Z,100.00
2022-08-27T17:02:17.438Z,100.00
2022-08-27T17:04:49.291Z,100.00
2022-08-27T17:07:32.079Z,100.00
2022-08-27T17:10:01.446Z,100.00
2022-08-27T17:12:31.969Z,100.00
2022-08-27T17:15:00.512Z,100.00
2022-08-27T17:17:29.984Z,100.00
2022-08-27T17:19:56.962Z,100.00
2022-08-27T17:22:23.401Z,100.00
2022-08-27T17:24:49.853Z,100.00
2022-08-27T17:27:20.236Z,100.00
2022-08-27T17:29:46.798Z,100.00
2022-08-27T17:32:13.393Z,100.00
2022-08-27T17:34:40.225Z,100.00
2022-08-27T17:37:06.699Z,100.00
2022-08-27T17:39:33.165Z,100.00
2022-08-27T17:41:59.628Z,100.00
2022-08-27T17:44:35.071Z,100.00
2022-08-27T17:47:04.785Z,100.00
2022-08-27T17:49:31.390Z,100.00
2022-08-27T17:52:02.205Z,100.00
2022-08-27T17:54:37.427Z,100.00
2022-08-27T17:57:10.440Z,100.00
2022-08-27T17:59:36.891Z,100.00
2022-08-27T18:02:03.657Z,100.00
2022-08-27T18:04:30.297Z,100.00
2022-08-27T18:06:56.779Z,100.00
2022-08-27T18:09:23.273Z,100.00
2022-08-27T18:11:49.784Z,100.00
2022-08-27T18:14:18.527Z,100.00
2022-08-27T18:16:45.756Z,100.00
2022-08-27T18:19:12.424Z,100.00
2022-08-27T18:21:46.450Z,100.00
2022-08-27T18:24:14.274Z,100.00
2022-08-27T18:26:40.813Z,100.00
2022-08-27T18:29:07.422Z,100.00
2022-08-27T18:31:34.148Z,100.00
2022-08-27T18:34:01.004Z,100.00
2022-08-27T18:36:28.025Z,100.00
2022-08-27T18:38:54.581Z,100.00
2022-08-27T18:41:21.837Z,100.00
2022-08-27T18:43:49.037Z,100.00
2022-08-27T18:46:17.658Z,100.00
2022-08-27T18:48:44.778Z,100.00
2022-08-27T18:51:14.413Z,100.00
2022-08-27T18:53:42.911Z,100.00
2022-08-27T18:56:16.687Z,100.00
2022-08-27T18:58:43.637Z,100.00
2022-08-27T19:01:13.808Z,100.00
2022-08-27T19:03:45.532Z,100.00
2022-08-27T19:06:12.998Z,100.00
2022-08-27T19:08:40.310Z,100.00
2022-08-27T19:11:06.805Z,100.00
2022-08-27T19:13:33.708Z,100.00
2022-08-27T19:16:06.929Z,100.00
2022-08-27T19:18:36.631Z,100.00
2022-08-27T19:21:03.416Z,100.00
2022-08-27T19:23:29.885Z,100.00
2022-08-27T19:25:58.545Z,100.00
2022-08-27T19:28:30.009Z,100.00
2022-08-27T19:30:56.479Z,100.00
2022-08-27T19:33:23.213Z,100.00
2022-08-27T19:35:49.981Z,100.00
2022-08-27T19:38:16.633Z,100.00
2022-08-27T19:40:43.175Z,100.00
2022-08-27T19:43:10.680Z,100.00
2022-08-27T19:45:40.494Z,100.00
2022-08-27T19:48:08.005Z,100.00
2022-08-27T19:50:35.081Z,100.00
2022-08-27T19:53:01.511Z,100.00
2022-08-27T19:55:27.943Z,100.00
2022-08-27T19:57:54.503Z,100.00
2022-08-27T20:00:24.661Z,100.00
2022-08-27T20:02:54.776Z,100.00
2022-08-27T20:05:22.729Z,100.00
2022-08-27T20:07:51.705Z,100.00
2022-08-27T20:10:21.613Z,100.00
2022-08-27T20:12:49.126Z,100.00
2022-08-27T20:15:16.693Z,100.00
2022-08-27T20:17:44.041Z,100.00
2022-08-27T20:20:12.712Z,100.00
2022-08-27T20:22:39.752Z,100.00
2022-08-27T20:25:07.098Z,100.00
2022-08-27T20:27:33.934Z,100.00
2022-08-27T20:30:00.480Z,100.00
2022-08-27T20:32:30.006Z,100.00
2022-08-27T20:34:57.102Z,100.00
2022-08-27T20:37:24.298Z,100.00
2022-08-27T20:39:52.355Z,100.00
2022-08-27T20:42:19.947Z,100.00
2022-08-27T20:44:46.866Z,100.00
2022-08-27T20:47:14.892Z,100.00
2022-08-27T20:49:44.266Z,100.00
2022-08-27T20:52:12.689Z,100.00
2022-08-27T20:54:39.837Z,100.00
2022-08-27T20:57:06.538Z,100.00
2022-08-27T20:59:51.569Z,100.00
2022-08-27T21:02:22.316Z,100.00
2022-08-27T21:04:49.165Z,100.00
2022-08-27T21:07:17.338Z,100.00
2022-08-27T21:09:55.934Z,100.00
2022-08-27T21:12:23.864Z,100.00
2022-08-27T21:14:56.005Z,100.00
2022-08-27T21:17:24.955Z,100.00
2022-08-27T21:19:51.537Z,100.00
2022-08-27T21:22:18.408Z,100.00
2022-08-27T21:24:47.104Z,100.00
2022-08-27T21:27:14.706Z,100.00
2022-08-27T21:29:41.286Z,100.00
2022-08-27T21:32:09.298Z,100.00
2022-08-27T21:34:35.810Z,100.00
2022-08-27T21:37:03.726Z,100.00
2022-08-27T21:39:32.705Z,100.00
2022-08-27T21:42:00.667Z,100.00
2022-08-27T21:44:27.936Z,100.00
2022-08-27T21:46:54.598Z,100.00
2022-08-27T21:49:21.312Z,100.00
2022-08-27T21:51:47.829Z,100.00
2022-08-27T21:54:15.609Z,100.00
2022-08-27T21:56:43.151Z,100.00
2022-08-27T21:59:09.848Z,100.00
2022-08-27T22:01:36.468Z,100.00
2022-08-27T22:04:03.332Z,100.00
2022-08-27T22:06:30.182Z,100.00
2022-08-27T22:08:56.762Z,100.00
2022-08-27T22:11:24.448Z,100.00
2022-08-27T22:13:51.674Z,100.00
2022-08-27T22:16:18.999Z,100.00
2022-08-27T22:18:45.577Z,100.00
2022-08-27T22:21:12.269Z,100.00
2022-08-27T22:23:38.774Z,100.00
2022-08-27T22:26:11.259Z,100.00
2022-08-27T22:28:37.755Z,100.00
2022-08-27T22:31:04.247Z,100.00
2022-08-27T22:33:30.752Z,100.00
2022-08-27T22:35:57.205Z,100.00
2022-08-27T22:38:23.693Z,100.00
2022-08-27T22:40:52.032Z,100.00
2022-08-27T22:43:19.548Z,100.00
2022-08-27T22:45:46.042Z,100.00
2022-08-27T22:48:12.821Z,100.00
2022-08-27T22:50:39.450Z,100.00
2022-08-27T22:53:06.025Z,100.00
2022-08-27T22:55:32.564Z,100.00
2022-08-27T22:58:01.242Z,100.00
2022-08-27T23:00:31.713Z,100.00
2022-08-27T23:02:58.253Z,100.00
2022-08-27T23:05:26.029Z,100.00
2022-08-27T23:07:53.263Z,100.00
2022-08-27T23:10:21.978Z,100.00
2022-08-27T23:12:48.767Z,100.00
2022-08-27T23:15:18.839Z,100.00
2022-08-27T23:17:45.315Z,100.00
2022-08-27T23:20:12.631Z,100.00
2022-08-27T23:22:39.812Z,100.00
2022-08-27T23:25:27.053Z,100.00
2022-08-27T23:27:54.232Z,100.00
2022-08-27T23:30:22.286Z,100.00
2022-08-27T23:32:53.655Z,100.00
2022-08-27T23:35:21.776Z,100.00
2022-08-27T23:37:49.793Z,100.00
2022-08-27T23:40:17.551Z,100.00
2022-08-27T23:42:45.374Z,100.00
2022-08-27T23:45:15.193Z,100.00
2022-08-27T23:47:41.928Z,100.00
2022-08-27T23:50:09.419Z,100.00
2022-08-27T23:52:36.378Z,100.00
2022-08-27T23:55:04.248Z,100.00
2022-08-27T23:57:30.731Z,100.00
2022-08-27T23:59:57.260Z,100.00
